createdAt,value
2022-08-01T00:00:09.210Z,1.10
2022-08-01T00:02:40.011Z,1.35
2022-08-01T00:07:34.660Z,1.08
2022-08-01T00:10:02.371Z,1.00
2022-08-01T00:12:29.016Z,1.02
2022-08-01T00:14:55.615Z,0.98
2022-08-01T00:17:22.396Z,1.30
2022-08-01T00:19:49.048Z,1.20
2022-08-01T00:22:15.809Z,1.08
2022-08-01T00:24:42.714Z,1.00
2022-08-01T00:27:09.391Z,1.05
2022-08-01T00:30:11.765Z,1.10
2022-08-01T00:32:23.070Z,1.20
2022-08-01T00:34:49.783Z,1.10
2022-08-01T00:37:18.162Z,0.93
2022-08-01T00:39:44.892Z,1.00
2022-08-01T00:42:12.722Z,1.25
2022-08-01T00:44:40.110Z,1.10
2022-08-01T00:47:07.335Z,1.25
2022-08-01T00:49:35.028Z,1.25
2022-08-01T00:52:04.475Z,1.00
2022-08-01T00:54:31.855Z,1.10
2022-08-01T00:56:58.892Z,1.15
2022-08-01T00:59:26.035Z,0.90
2022-08-01T01:01:52.944Z,1.10
2022-08-01T01:04:20.829Z,1.10
2022-08-01T01:07:20.690Z,1.17
2022-08-01T01:10:02.110Z,1.10
2022-08-01T01:12:41.833Z,1.00
2022-08-01T01:15:15.459Z,1.17
2022-08-01T01:17:51.123Z,1.30
2022-08-01T01:20:19.739Z,1.08
2022-08-01T01:22:48.820Z,1.00
2022-08-01T01:25:34.747Z,1.00
2022-08-01T01:28:33.678Z,1.15
2022-08-01T01:31:01.082Z,1.27
2022-08-01T01:33:32.832Z,1.15
2022-08-01T01:36:03.150Z,1.20
2022-08-01T01:38:37.439Z,1.02
2022-08-01T01:41:04.906Z,1.30
2022-08-01T01:43:33.865Z,1.10
2022-08-01T01:46:02.825Z,1.10
2022-08-01T01:48:29.790Z,1.25
2022-08-01T01:50:57.764Z,1.10
2022-08-01T01:53:25.721Z,1.10
2022-08-01T01:55:54.008Z,1.00
2022-08-01T01:58:22.102Z,1.05
2022-08-01T02:00:50.880Z,1.17
2022-08-01T02:03:18.961Z,1.08
2022-08-01T02:05:46.428Z,0.80
2022-08-01T02:08:16.499Z,1.00
2022-08-01T02:11:03.619Z,1.30
2022-08-01T02:13:32.766Z,1.15
2022-08-01T02:16:00.710Z,1.20
2022-08-01T02:18:28.384Z,1.10
2022-08-01T02:20:55.842Z,1.20
2022-08-01T02:23:24.688Z,1.20
2022-08-01T02:26:09.775Z,1.20
2022-08-01T02:28:58.698Z,1.20
2022-08-01T02:31:25.913Z,1.30
2022-08-01T02:33:58.171Z,1.55
2022-08-01T02:36:29.665Z,1.00
2022-08-01T02:39:03.225Z,1.20
2022-08-01T02:41:31.301Z,1.20
2022-08-01T02:44:04.660Z,1.30
2022-08-01T02:46:37.609Z,1.20
2022-08-01T02:49:06.706Z,1.13
2022-08-01T02:51:34.567Z,1.33
2022-08-01T02:54:03.022Z,1.50
2022-08-01T02:56:35.793Z,1.20
2022-08-01T02:59:08.505Z,1.20
2022-08-01T03:01:36.446Z,1.25
2022-08-01T03:04:05.884Z,1.05
2022-08-01T03:06:34.192Z,1.27
2022-08-01T03:09:03.781Z,1.27
2022-08-01T03:11:31.999Z,1.48
2022-08-01T03:14:03.020Z,1.30
2022-08-01T03:16:32.408Z,1.30
2022-08-01T03:19:00.025Z,1.13
2022-08-01T03:21:28.710Z,1.23
2022-08-01T03:23:58.056Z,1.23
2022-08-01T03:26:29.811Z,1.30
2022-08-01T03:28:58.357Z,1.40
2022-08-01T03:31:26.335Z,1.20
2022-08-01T03:33:53.480Z,1.30
2022-08-01T03:36:23.426Z,1.10
2022-08-01T03:38:50.999Z,1.23
2022-08-01T03:41:21.962Z,1.30
2022-08-01T03:43:58.710Z,1.30
2022-08-01T03:46:30.658Z,1.10
2022-08-01T03:48:59.830Z,1.13
2022-08-01T03:51:27.130Z,1.02
2022-08-01T03:53:55.455Z,1.60
2022-08-01T03:56:23.460Z,1.27
2022-08-01T03:58:50.595Z,1.30
2022-08-01T04:01:18.121Z,1.48
2022-08-01T04:03:45.376Z,1.10
2022-08-01T04:06:12.152Z,1.20
2022-08-01T04:08:39.367Z,1.30
2022-08-01T04:11:06.196Z,1.10
2022-08-01T04:13:36.699Z,1.40
2022-08-01T04:16:04.598Z,1.13
2022-08-01T04:18:31.384Z,1.20
2022-08-01T04:20:58.100Z,1.08
2022-08-01T04:23:26.510Z,1.20
2022-08-01T04:25:53.507Z,1.40
2022-08-01T04:28:21.368Z,1.10
2022-08-01T04:30:49.822Z,1.17
2022-08-01T04:33:17.361Z,0.93
2022-08-01T04:36:01.665Z,0.90
2022-08-01T04:38:32.264Z,1.13
2022-08-01T04:41:08.377Z,1.02
2022-08-01T04:43:37.266Z,1.00
2022-08-01T04:46:04.864Z,1.02
2022-08-01T04:48:33.040Z,1.00
2022-08-01T04:51:00.082Z,1.05
2022-08-01T04:53:27.523Z,0.95
2022-08-01T04:55:54.564Z,0.82
2022-08-01T04:58:21.228Z,1.10
2022-08-01T05:00:48.830Z,0.80
2022-08-01T05:03:15.630Z,0.80
2022-08-01T05:05:42.263Z,0.73
2022-08-01T05:08:09.068Z,0.63
2022-08-01T05:10:36.001Z,0.90
2022-08-01T05:13:03.577Z,0.88
2022-08-01T05:15:30.181Z,0.98
2022-08-01T05:17:57.469Z,0.90
2022-08-01T05:20:24.147Z,0.90
2022-08-01T05:22:50.859Z,0.93
2022-08-01T05:25:20.423Z,1.35
2022-08-01T05:27:53.791Z,0.80
2022-08-01T05:30:20.668Z,0.95
2022-08-01T05:32:47.305Z,0.80
2022-08-01T05:35:14.038Z,0.73
2022-08-01T05:37:40.672Z,0.70
2022-08-01T05:40:08.003Z,0.98
2022-08-01T05:42:34.814Z,0.80
2022-08-01T05:45:01.488Z,1.02
2022-08-01T05:47:28.096Z,0.80
2022-08-01T05:49:55.014Z,0.60
2022-08-01T05:52:21.811Z,0.93
2022-08-01T05:54:48.901Z,0.80
2022-08-01T05:57:16.249Z,0.80
2022-08-01T05:59:44.245Z,0.75
2022-08-01T06:02:11.475Z,0.70
2022-08-01T06:04:38.484Z,0.70
2022-08-01T06:07:05.130Z,0.70
2022-08-01T06:09:31.849Z,0.68
2022-08-01T06:11:58.656Z,0.77
2022-08-01T06:14:27.648Z,1.00
2022-08-01T06:16:54.460Z,0.70
2022-08-01T06:19:21.339Z,0.77
2022-08-01T06:21:48.111Z,0.80
2022-08-01T06:24:15.051Z,0.75
2022-08-01T06:26:41.819Z,0.73
2022-08-01T06:29:10.058Z,0.68
2022-08-01T06:31:36.929Z,0.82
2022-08-01T06:34:03.561Z,0.80
2022-08-01T06:36:30.171Z,0.63
2022-08-01T06:38:56.778Z,0.60
2022-08-01T06:41:23.412Z,0.82
2022-08-01T06:43:50.335Z,0.50
2022-08-01T06:46:17.130Z,0.82
2022-08-01T06:48:43.974Z,0.80
2022-08-01T06:51:12.475Z,0.70
2022-08-01T06:53:39.274Z,0.90
2022-08-01T06:56:06.765Z,0.90
2022-08-01T06:58:35.231Z,0.68
2022-08-01T07:01:02.368Z,0.80
2022-08-01T07:03:54.010Z,0.88
2022-08-01T07:06:16.846Z,0.90
2022-08-01T07:08:43.918Z,0.70
2022-08-01T07:11:10.649Z,0.63
2022-08-01T07:13:44.166Z,0.70
2022-08-01T07:16:13.655Z,0.60
2022-08-01T07:18:40.410Z,0.77
2022-08-01T07:21:07.198Z,0.70
2022-08-01T07:23:45.987Z,0.75
2022-08-01T07:26:14.163Z,0.60
2022-08-01T07:28:43.870Z,0.73
2022-08-01T07:31:10.962Z,0.65
2022-08-01T07:33:48.788Z,0.60
2022-08-01T07:36:19.293Z,0.70
2022-08-01T07:41:13.542Z,0.68
2022-08-01T07:43:40.191Z,0.70
2022-08-01T07:46:07.356Z,0.50
2022-08-01T07:48:34.685Z,0.70
2022-08-01T07:51:01.404Z,0.55
2022-08-01T07:53:28.147Z,0.70
2022-08-01T07:55:54.799Z,0.60
2022-08-01T07:58:21.708Z,0.60
2022-08-01T08:00:48.735Z,0.60
2022-08-01T08:03:15.346Z,0.70
2022-08-01T08:05:58.580Z,0.50
2022-08-01T08:08:26.670Z,0.60
2022-08-01T08:10:53.327Z,0.63
2022-08-01T08:13:20.057Z,0.60
2022-08-01T08:15:48.738Z,0.75
2022-08-01T08:18:16.582Z,0.80
2022-08-01T08:20:43.803Z,0.50
2022-08-01T08:23:42.655Z,0.63
2022-08-01T08:26:13.504Z,0.60
2022-08-01T08:28:40.751Z,0.60
2022-08-01T08:31:25.038Z,0.73
2022-08-01T08:33:58.818Z,0.75
2022-08-01T08:36:30.880Z,0.70
2022-08-01T08:39:01.344Z,0.60
2022-08-01T08:41:28.221Z,0.50
2022-08-01T08:44:06.267Z,0.75
2022-08-01T08:46:44.762Z,0.65
2022-08-01T08:49:13.067Z,0.50
2022-08-01T08:51:41.067Z,0.60
2022-08-01T08:54:08.620Z,0.60
2022-08-01T08:56:36.137Z,0.63
2022-08-01T08:59:03.910Z,0.70
2022-08-01T09:01:33.707Z,0.60
2022-08-01T09:04:00.647Z,0.43
2022-08-01T09:06:27.646Z,0.50
2022-08-01T09:08:56.935Z,0.70
2022-08-01T09:11:24.203Z,0.52
2022-08-01T09:14:16.171Z,0.63
2022-08-01T09:16:48.714Z,0.40
2022-08-01T09:19:39.056Z,0.60
2022-08-01T09:22:09.199Z,0.70
2022-08-01T09:24:36.697Z,0.50
2022-08-01T09:27:20.990Z,0.65
2022-08-01T09:29:49.933Z,0.60
2022-08-01T09:32:34.738Z,0.60
2022-08-01T09:35:23.264Z,0.50
2022-08-01T09:37:50.720Z,0.40
2022-08-01T09:40:17.323Z,0.60
2022-08-01T09:42:44.217Z,0.52
2022-08-01T09:45:11.030Z,0.40
2022-08-01T09:47:50.062Z,0.60
2022-08-01T09:50:17.484Z,0.50
2022-08-01T09:52:54.444Z,0.40
2022-08-01T09:55:22.541Z,0.70
2022-08-01T09:57:56.976Z,0.50
2022-08-01T10:00:44.251Z,0.40
2022-08-01T10:03:26.834Z,0.50
2022-08-01T10:05:59.281Z,0.50
2022-08-01T10:08:28.267Z,0.50
2022-08-01T10:11:09.994Z,0.40
2022-08-01T10:13:40.128Z,0.30
2022-08-01T10:16:07.866Z,0.40
2022-08-01T10:18:36.079Z,0.45
2022-08-01T10:21:08.683Z,0.35
2022-08-01T10:23:40.697Z,0.40
2022-08-01T10:26:09.443Z,0.40
2022-08-01T10:28:38.655Z,0.43
2022-08-01T10:33:51.392Z,0.30
2022-08-01T10:36:25.397Z,0.50
2022-08-01T10:38:54.967Z,0.45
2022-08-01T10:41:22.035Z,0.30
2022-08-01T10:43:48.790Z,0.40
2022-08-01T10:46:15.720Z,0.50
2022-08-01T10:48:55.784Z,0.30
2022-08-01T10:53:56.079Z,0.50
2022-08-01T10:56:27.021Z,0.40
2022-08-01T10:59:06.849Z,0.35
2022-08-01T11:01:38.797Z,0.50
2022-08-01T11:04:17.592Z,0.40
2022-08-01T11:06:56.126Z,0.40
2022-08-01T11:09:30.444Z,0.30
2022-08-01T11:12:13.585Z,0.30
2022-08-01T11:15:00.493Z,0.30
2022-08-01T11:17:49.670Z,0.30
2022-08-01T11:20:34.278Z,0.30
2022-08-01T11:23:02.382Z,0.30
2022-08-01T11:26:05.523Z,0.40
2022-08-01T11:28:32.624Z,0.30
2022-08-01T11:31:10.936Z,0.30
2022-08-01T11:33:48.573Z,0.38
2022-08-01T11:36:18.641Z,0.30
2022-08-01T11:38:49.219Z,0.32
2022-08-01T11:41:37.613Z,0.40
2022-08-01T11:44:12.128Z,0.28
2022-08-01T11:47:01.324Z,0.30
2022-08-01T11:49:38.733Z,0.20
2022-08-01T11:52:20.711Z,0.38
2022-08-01T11:54:59.441Z,0.30
2022-08-01T11:57:34.117Z,0.40
2022-08-01T12:00:08.594Z,0.30
2022-08-01T12:02:41.964Z,0.40
2022-08-01T12:05:14.353Z,0.40
2022-08-01T12:07:42.484Z,0.40
2022-08-01T12:10:16.307Z,0.63
2022-08-01T12:12:52.552Z,0.50
2022-08-01T12:15:21.426Z,0.43
2022-08-01T12:17:58.808Z,0.35
2022-08-01T12:20:34.662Z,0.40
2022-08-01T12:23:10.397Z,0.50
2022-08-01T12:25:38.242Z,0.50
2022-08-01T12:28:07.019Z,0.30
2022-08-01T12:30:37.647Z,0.45
2022-08-01T12:33:06.165Z,0.30
2022-08-01T12:35:33.652Z,0.30
2022-08-01T12:38:08.952Z,0.30
2022-08-01T12:40:39.917Z,0.30
2022-08-01T12:43:15.754Z,0.40
2022-08-01T12:45:54.595Z,0.40
2022-08-01T12:48:24.779Z,0.50
2022-08-01T12:50:53.266Z,0.30
2022-08-01T12:53:19.996Z,0.40
2022-08-01T12:55:58.564Z,0.40
2022-08-01T12:58:32.839Z,0.20
2022-08-01T13:01:05.856Z,0.30
2022-08-01T13:03:32.781Z,0.30
2022-08-01T13:05:59.860Z,0.38
2022-08-01T13:08:29.862Z,0.40
2022-08-01T13:11:09.691Z,0.38
2022-08-01T13:13:44.623Z,0.30
2022-08-01T13:16:12.562Z,0.30
2022-08-01T13:18:55.219Z,0.32
2022-08-01T13:21:23.407Z,0.30
2022-08-01T13:24:11.806Z,0.30
2022-08-01T13:26:45.760Z,0.40
2022-08-01T13:29:17.190Z,0.40
2022-08-01T13:31:44.787Z,0.40
2022-08-01T13:34:12.298Z,0.40
2022-08-01T13:36:41.247Z,0.47
2022-08-01T13:39:28.329Z,0.40
2022-08-01T13:41:54.963Z,0.20
2022-08-01T13:44:22.476Z,0.50
2022-08-01T13:46:51.327Z,0.30
2022-08-01T13:49:19.290Z,0.40
2022-08-01T13:51:47.326Z,0.50
2022-08-01T13:54:14.348Z,0.40
2022-08-01T13:56:41.240Z,0.50
2022-08-01T13:59:08.028Z,0.50
2022-08-01T14:01:35.434Z,0.40
2022-08-01T14:04:03.712Z,0.55
2022-08-01T14:06:30.555Z,0.35
2022-08-01T14:08:57.257Z,0.50
2022-08-01T14:11:24.545Z,0.40
2022-08-01T14:13:51.363Z,0.30
2022-08-01T14:16:18.412Z,0.30
2022-08-01T14:18:45.139Z,0.30
2022-08-01T14:21:12.315Z,0.30
2022-08-01T14:23:39.318Z,0.25
2022-08-01T14:26:11.847Z,0.43
2022-08-01T14:28:39.989Z,0.30
2022-08-01T14:31:09.712Z,0.40
2022-08-01T14:33:38.615Z,0.30
2022-08-01T14:36:30.975Z,0.40
2022-08-01T14:38:52.766Z,0.30
2022-08-01T14:41:19.765Z,0.38
2022-08-01T14:43:46.881Z,0.50
2022-08-01T14:46:14.111Z,0.30
2022-08-01T14:48:40.837Z,0.40
2022-08-01T14:51:08.370Z,0.57
2022-08-01T14:53:38.499Z,0.57
2022-08-01T14:56:08.427Z,0.55
2022-08-01T14:58:35.290Z,0.52
2022-08-01T15:01:02.413Z,0.43
2022-08-01T15:03:29.618Z,0.70
2022-08-01T15:05:56.657Z,0.55
2022-08-01T15:08:24.223Z,0.68
2022-08-01T15:10:51.262Z,0.55
2022-08-01T15:13:18.252Z,0.60
2022-08-01T15:15:45.012Z,0.60
2022-08-01T15:18:11.791Z,0.50
2022-08-01T15:20:39.830Z,0.50
2022-08-01T15:23:06.464Z,0.47
2022-08-01T15:25:40.813Z,0.50
2022-08-01T15:28:10.301Z,0.45
2022-08-01T15:30:37.241Z,0.50
2022-08-01T15:33:04.138Z,0.60
2022-08-01T15:35:30.790Z,0.50
2022-08-01T15:37:57.858Z,0.55
2022-08-01T15:40:25.494Z,0.50
2022-08-01T15:42:53.156Z,0.40
2022-08-01T15:48:09.104Z,0.57
2022-08-01T15:50:38.493Z,0.70
2022-08-01T15:53:05.785Z,0.50
2022-08-01T15:55:32.510Z,0.50
2022-08-01T15:57:59.303Z,0.50
2022-08-01T16:00:32.769Z,0.50
2022-08-01T16:03:03.344Z,0.60
2022-08-01T16:05:30.733Z,0.45
2022-08-01T16:07:59.429Z,0.60
2022-08-01T16:10:29.285Z,0.50
2022-08-01T16:12:56.699Z,0.40
2022-08-01T16:15:36.804Z,0.65
2022-08-01T16:18:07.950Z,0.85
2022-08-01T16:20:35.229Z,0.50
2022-08-01T16:23:02.226Z,0.38
2022-08-01T16:25:29.054Z,0.80
2022-08-01T16:27:55.673Z,0.40
2022-08-01T16:30:22.335Z,0.50
2022-08-01T16:32:56.799Z,0.50
2022-08-01T16:35:36.058Z,0.57
2022-08-01T16:38:04.799Z,0.60
2022-08-01T16:40:46.238Z,0.50
2022-08-01T16:43:14.462Z,0.40
2022-08-01T16:45:44.345Z,0.40
2022-08-01T16:50:39.270Z,0.52
2022-08-01T16:53:06.234Z,0.60
2022-08-01T16:55:49.175Z,0.40
2022-08-01T16:58:19.104Z,0.50
2022-08-01T17:00:56.890Z,0.57
2022-08-01T17:03:51.882Z,0.45
2022-08-01T17:06:11.142Z,0.40
2022-08-01T17:08:46.132Z,0.55
2022-08-01T17:11:14.267Z,0.70
2022-08-01T17:13:41.064Z,0.68
2022-08-01T17:16:09.287Z,0.40
2022-08-01T17:18:37.129Z,0.60
2022-08-01T17:21:04.009Z,0.63
2022-08-01T17:23:31.798Z,0.70
2022-08-01T17:25:59.557Z,0.52
2022-08-01T17:28:27.181Z,0.60
2022-08-01T17:30:54.142Z,0.60
2022-08-01T17:33:20.826Z,0.60
2022-08-01T17:35:47.850Z,0.80
2022-08-01T17:38:14.581Z,0.73
2022-08-01T17:40:41.902Z,0.60
2022-08-01T17:43:09.238Z,0.70
2022-08-01T17:45:50.273Z,0.50
2022-08-01T17:48:18.761Z,0.60
2022-08-01T17:50:47.190Z,0.50
2022-08-01T17:53:15.576Z,0.45
2022-08-01T17:55:53.764Z,0.55
2022-08-01T17:58:36.792Z,0.52
2022-08-01T18:01:11.892Z,0.50
2022-08-01T18:03:41.551Z,0.63
2022-08-01T18:06:09.911Z,0.60
2022-08-01T18:08:36.820Z,0.50
2022-08-01T18:11:03.770Z,0.80
2022-08-01T18:13:30.425Z,0.60
2022-08-01T18:15:57.382Z,0.60
2022-08-01T18:18:33.550Z,0.43
2022-08-01T18:21:01.791Z,0.65
2022-08-01T18:23:28.571Z,0.63
2022-08-01T18:25:55.386Z,0.52
2022-08-01T18:28:31.197Z,0.60
2022-08-01T18:31:01.086Z,0.38
2022-08-01T18:33:28.146Z,0.80
2022-08-01T18:35:56.131Z,0.98
2022-08-01T18:38:29.302Z,0.60
2022-08-01T18:40:56.557Z,0.70
2022-08-01T18:43:23.198Z,0.60
2022-08-01T18:45:49.892Z,0.60
2022-08-01T18:48:16.559Z,0.50
2022-08-01T18:50:43.305Z,0.55
2022-08-01T18:53:10.358Z,0.60
2022-08-01T18:55:36.998Z,0.68
2022-08-01T18:58:04.086Z,0.60
2022-08-01T19:00:30.968Z,0.60
2022-08-01T19:02:58.361Z,0.70
2022-08-01T19:05:25.041Z,0.70
2022-08-01T19:08:04.955Z,0.50
2022-08-01T19:10:38.509Z,0.52
2022-08-01T19:13:05.178Z,0.60
2022-08-01T19:15:32.010Z,0.68
2022-08-01T19:17:58.599Z,0.80
2022-08-01T19:20:25.570Z,0.68
2022-08-01T19:22:52.232Z,0.70
2022-08-01T19:25:18.921Z,0.70
2022-08-01T19:27:48.068Z,0.90
2022-08-01T19:30:16.273Z,0.73
2022-08-01T19:32:47.438Z,0.77
2022-08-01T19:35:17.356Z,0.70
2022-08-01T19:37:50.826Z,0.70
2022-08-01T19:40:26.265Z,0.70
2022-08-01T19:42:56.385Z,0.80
2022-08-01T19:45:23.319Z,0.70
2022-08-01T19:47:56.759Z,0.60
2022-08-01T19:50:28.032Z,0.93
2022-08-01T19:52:56.261Z,0.98
2022-08-01T19:55:24.502Z,1.20
2022-08-01T19:58:10.608Z,1.45
2022-08-01T20:00:42.684Z,1.20
2022-08-01T20:03:10.139Z,1.38
2022-08-01T20:05:38.614Z,1.10
2022-08-01T20:08:07.129Z,1.30
2022-08-01T20:10:34.259Z,1.08
2022-08-01T20:13:01.287Z,1.30
2022-08-01T20:15:29.280Z,1.10
2022-08-01T20:18:02.265Z,1.20
2022-08-01T20:20:29.055Z,1.40
2022-08-01T20:22:57.066Z,1.20
2022-08-01T20:25:32.052Z,1.40
2022-08-01T20:28:05.592Z,1.20
2022-08-01T20:30:32.862Z,1.40
2022-08-01T20:33:00.037Z,1.10
2022-08-01T20:35:52.281Z,1.13
2022-08-01T20:38:16.499Z,1.42
2022-08-01T20:40:45.637Z,1.63
2022-08-01T20:43:13.829Z,1.23
2022-08-01T20:45:42.237Z,1.30
2022-08-01T20:48:11.660Z,1.10
2022-08-01T20:50:56.964Z,1.30
2022-08-01T20:53:24.398Z,1.40
2022-08-01T20:56:36.922Z,1.38
2022-08-01T20:59:55.378Z,1.67
2022-08-01T21:02:20.232Z,1.33
2022-08-01T21:04:56.514Z,1.15
2022-08-01T21:07:39.291Z,1.67
2022-08-01T21:10:15.226Z,1.98
2022-08-01T21:12:49.435Z,1.90
2022-08-01T21:15:32.389Z,1.33
2022-08-01T21:18:15.790Z,1.60
2022-08-01T21:20:44.063Z,1.50
2022-08-01T21:23:29.163Z,1.67
2022-08-01T21:25:59.985Z,1.10
2022-08-01T21:28:27.707Z,1.38
2022-08-01T21:30:58.173Z,1.63
2022-08-01T21:33:29.540Z,1.35
2022-08-01T21:36:02.598Z,1.55
2022-08-01T21:38:33.872Z,1.40
2022-08-01T21:41:03.007Z,1.38
2022-08-01T21:43:32.199Z,1.30
2022-08-01T21:46:00.087Z,1.23
2022-08-01T21:48:30.780Z,1.30
2022-08-01T21:50:59.721Z,1.40
2022-08-01T21:53:57.295Z,1.20
2022-08-01T21:56:36.163Z,1.70
2022-08-01T21:59:17.415Z,1.52
2022-08-01T22:01:53.128Z,1.30
2022-08-01T22:04:29.396Z,1.80
2022-08-01T22:06:57.163Z,1.65
2022-08-01T22:09:24.186Z,1.75
2022-08-01T22:12:00.952Z,1.58
2022-08-01T22:14:30.264Z,1.77
2022-08-01T22:16:58.820Z,1.55
2022-08-01T22:19:44.459Z,1.90
2022-08-01T22:22:34.233Z,1.45
2022-08-01T22:25:02.179Z,1.80
2022-08-01T22:28:05.962Z,2.10
2022-08-01T22:30:17.625Z,1.95
2022-08-01T22:33:15.115Z,2.38
2022-08-01T22:35:33.667Z,2.10
2022-08-01T22:38:01.499Z,2.08
2022-08-01T22:40:28.388Z,2.33
2022-08-01T22:43:03.739Z,2.00
2022-08-01T22:45:56.286Z,1.80
2022-08-01T22:48:26.664Z,1.60
2022-08-01T22:50:58.995Z,1.92
2022-08-01T22:53:53.823Z,1.95
2022-08-01T22:56:21.614Z,2.10
2022-08-01T22:58:48.474Z,2.10
2022-08-01T23:01:21.777Z,2.40
2022-08-01T23:03:52.680Z,2.25
2022-08-01T23:06:39.630Z,2.33
2022-08-01T23:09:07.444Z,2.55
2022-08-01T23:11:34.289Z,2.60
2022-08-01T23:14:03.031Z,2.78
2022-08-01T23:16:30.934Z,2.83
2022-08-01T23:19:01.227Z,2.17
2022-08-01T23:21:28.616Z,2.55
2022-08-01T23:23:56.876Z,2.63
2022-08-01T23:26:24.349Z,2.45
2022-08-01T23:28:51.586Z,2.15
2022-08-01T23:31:18.759Z,2.83
2022-08-01T23:33:45.627Z,3.00
2022-08-01T23:36:12.574Z,2.78
2022-08-01T23:38:39.775Z,2.80
2022-08-01T23:41:14.769Z,3.20
2022-08-01T23:43:52.222Z,2.78
2022-08-01T23:46:19.374Z,2.40
2022-08-01T23:48:46.034Z,2.40
2022-08-01T23:51:23.871Z,2.65
2022-08-01T23:53:51.338Z,2.47
2022-08-01T23:56:23.748Z,2.20
2022-08-01T23:58:52.424Z,2.00
